Time;durP1;ratioP1;P1;durP2;ratioP2;P2;SDS_P1;SDS_P2;PMS_P1;PMS_P2;Temp;Humidity;BMP_temperature;BMP_pressure;BME280_temperature;BME280_humidity;BME280_pressure;Samples;Min_cycle;Max_cycle;Signal;HPM_P1;HPM_P2
2023/07/12 00:00:45;;;;;;;11.55;3.65;;;27.00;47.70;;;;;;4972597;28;20218;-48
2023/07/12 00:03:15;;;;;;;9.18;4.32;;;26.90;47.80;;;;;;4967150;28;20517;-49
2023/07/12 00:05:44;;;;;;;9.68;4.47;;;26.90;48.30;;;;;;4975216;28;20072;-54
2023/07/12 00:08:19;;;;;;;9.48;4.13;;;26.80;48.50;;;;;;4974625;28;20054;-53
2023/07/12 00:10:47;;;;;;;13.30;4.78;;;26.80;48.90;;;;;;4973057;28;20054;-58
2023/07/12 00:13:16;;;;;;;12.10;4.30;;;26.70;49.20;;;;;;4971218;28;20058;-58
2023/07/12 00:15:46;;;;;;;12.35;4.20;;;26.60;49.20;;;;;;4975805;28;20427;-54
2023/07/12 00:18:15;;;;;;;8.38;3.55;;;26.50;49.40;;;;;;4977280;28;20054;-57
2023/07/12 00:20:43;;;;;;;6.72;3.25;;;26.40;49.60;;;;;;4974610;28;20074;-57
2023/07/12 00:23:11;;;;;;;17.08;4.03;;;26.30;49.50;;;;;;4974442;28;20050;-55
2023/07/12 00:25:39;;;;;;;6.57;2.90;;;26.20;49.70;;;;;;4974310;28;20046;-56
2023/07/12 00:28:21;;;;;;;7.55;3.05;;;26.00;49.70;;;;;;4976703;28;20054;-53
2023/07/12 00:30:50;;;;;;;9.15;3.22;;;26.00;49.90;;;;;;4971812;28;20055;-57
2023/07/12 00:33:18;;;;;;;10.35;3.08;;;25.90;49.90;;;;;;4970478;28;20529;-57
2023/07/12 00:35:46;;;;;;;5.90;2.50;;;25.80;50.00;;;;;;4972941;28;20046;-50
2023/07/12 00:38:17;;;;;;;10.25;2.38;;;25.70;49.70;;;;;;4973759;28;20042;-45
2023/07/12 00:41:06;;;;;;;5.85;2.25;;;25.70;49.90;;;;;;4970448;28;20061;-56
2023/07/12 00:43:38;;;;;;;5.13;2.78;;;25.60;49.70;;;;;;4971611;28;21018;-53
2023/07/12 00:46:17;;;;;;;4.88;1.98;;;25.50;49.70;;;;;;4978542;28;20065;-57
2023/07/12 00:48:46;;;;;;;4.22;1.80;;;25.40;49.70;;;;;;4977447;28;20496;-58
2023/07/12 00:51:31;;;;;;;6.22;2.35;;;25.40;49.70;;;;;;4970883;28;20403;-53
2023/07/12 00:53:59;;;;;;;4.20;1.70;;;25.20;49.50;;;;;;4972884;28;20509;-58
2023/07/12 00:56:27;;;;;;;3.83;1.77;;;25.10;49.70;;;;;;4969080;28;20046;-57
2023/07/12 00:58:58;;;;;;;3.65;1.88;;;25.00;49.90;;;;;;4975769;28;20061;-59
2023/07/12 01:01:27;;;;;;;3.90;1.83;;;24.90;50.20;;;;;;5000434;23;20054;-51
2023/07/12 01:03:56;;;;;;;4.15;1.55;;;24.80;50.40;;;;;;4994685;28;20046;-47
2023/07/12 01:06:24;;;;;;;4.13;1.60;;;24.70;50.60;;;;;;4994926;28;20050;-51
2023/07/12 01:08:52;;;;;;;9.10;2.05;;;24.70;50.90;;;;;;4995855;28;20076;-49
2023/07/12 01:11:21;;;;;;;4.10;2.00;;;24.70;51.10;;;;;;4984509;28;20121;-50
2023/07/12 01:13:50;;;;;;;4.18;1.85;;;24.60;51.20;;;;;;4994299;28;20054;-51
2023/07/12 01:16:23;;;;;;;5.82;2.05;;;24.50;51.40;;;;;;4992626;28;20050;-48
2023/07/12 01:18:51;;;;;;;9.93;1.88;;;24.50;51.50;;;;;;4993683;28;20058;-47
2023/07/12 01:21:22;;;;;;;4.70;2.03;;;24.40;51.60;;;;;;4988771;28;20049;-52
2023/07/12 01:23:50;;;;;;;4.03;1.45;;;24.40;51.70;;;;;;4993440;28;20065;-47
2023/07/12 01:26:24;;;;;;;5.38;1.75;;;24.30;51.80;;;;;;4995471;28;20050;-49
2023/07/12 01:28:55;;;;;;;5.00;1.67;;;24.30;52.00;;;;;;4994522;28;20058;-57
2023/07/12 01:31:24;;;;;;;7.13;1.88;;;24.30;52.00;;;;;;4985924;28;20514;-56
2023/07/12 01:33:51;;;;;;;5.78;1.58;;;24.20;52.00;;;;;;4988845;28;20065;-48
2023/07/12 01:36:20;;;;;;;4.53;1.70;;;24.20;52.00;;;;;;4992894;28;20062;-49
2023/07/12 01:38:50;;;;;;;6.78;1.70;;;24.20;52.10;;;;;;4989148;28;20054;-52
2023/07/12 01:41:17;;;;;;;5.15;2.03;;;24.20;52.10;;;;;;4991787;28;20057;-51
2023/07/12 01:43:45;;;;;;;6.53;1.73;;;24.20;52.20;;;;;;4993284;28;20422;-57
2023/07/12 01:46:12;;;;;;;4.20;1.65;;;24.20;52.20;;;;;;4994424;28;20042;-56
2023/07/12 01:48:40;;;;;;;2.63;1.52;;;24.20;52.20;;;;;;4994353;28;20054;-51
2023/07/12 01:51:07;;;;;;;3.72;1.70;;;24.20;52.10;;;;;;4986536;28;20065;-47
2023/07/12 01:53:35;;;;;;;1.98;1.20;;;24.20;52.20;;;;;;4992587;28;20053;-49
2023/07/12 01:56:04;;;;;;;3.03;1.35;;;24.30;52.20;;;;;;4988651;28;20054;-52
2023/07/12 01:58:32;;;;;;;2.90;1.50;;;24.30;52.30;;;;;;4992901;28;20058;-57
2023/07/12 02:01:00;;;;;;;4.35;1.30;;;24.30;52.40;;;;;;4986433;28;20062;-50
2023/07/12 02:03:28;;;;;;;4.65;1.40;;;24.40;52.20;;;;;;4995617;28;20046;-49
2023/07/12 02:05:56;;;;;;;4.68;1.40;;;24.40;52.20;;;;;;4993317;28;20045;-49
2023/07/12 02:08:23;;;;;;;6.72;1.15;;;24.40;52.10;;;;;;4994775;28;20058;-48
2023/07/12 02:10:52;;;;;;;2.88;1.20;;;24.40;52.00;;;;;;4985887;28;20069;-51
2023/07/12 02:13:21;;;;;;;4.30;1.50;;;24.50;52.00;;;;;;4990616;28;20064;-50
2023/07/12 02:15:48;;;;;;;4.45;1.45;;;24.50;51.80;;;;;;4992039;28;20049;-57
2023/07/12 02:18:16;;;;;;;3.08;1.23;;;24.50;51.80;;;;;;4988507;28;20056;-56
2023/07/12 02:20:44;;;;;;;3.00;1.13;;;24.50;51.80;;;;;;4992625;28;20069;-56
2023/07/12 02:23:11;;;;;;;4.97;1.50;;;24.50;51.60;;;;;;4990548;28;20049;-47
2023/07/12 02:25:38;;;;;;;4.32;1.58;;;24.50;51.50;;;;;;4989394;28;20053;-47
2023/07/12 02:28:08;;;;;;;4.90;1.45;;;24.50;51.60;;;;;;4992926;28;20545;-49
2023/07/12 02:30:38;;;;;;;7.07;1.40;;;24.50;51.50;;;;;;4991927;28;20060;-47
2023/07/12 02:33:06;;;;;;;4.28;1.40;;;24.50;51.50;;;;;;4988480;28;20062;-47
2023/07/12 02:35:33;;;;;;;3.15;1.52;;;24.50;51.50;;;;;;4986620;28;20046;-46
2023/07/12 02:38:01;;;;;;;2.28;1.55;;;24.50;51.50;;;;;;4991991;28;20080;-47
2023/07/12 02:40:29;;;;;;;3.97;1.35;;;24.50;51.50;;;;;;4992654;28;20050;-51
2023/07/12 02:42:57;;;;;;;4.28;1.50;;;24.40;51.50;;;;;;4993397;28;20062;-55
2023/07/12 02:45:26;;;;;;;3.13;1.50;;;24.50;51.50;;;;;;4994512;28;20493;-46
2023/07/12 02:47:53;;;;;;;2.05;1.10;;;24.40;51.50;;;;;;4995781;28;20417;-51
2023/07/12 02:50:20;;;;;;;2.35;1.23;;;24.40;51.50;;;;;;4984070;28;20068;-49
2023/07/12 02:52:48;;;;;;;4.75;1.35;;;24.40;51.60;;;;;;4992511;28;20062;-49
2023/07/12 02:55:15;;;;;;;5.00;1.60;;;24.40;51.70;;;;;;4994266;28;20069;-55
2023/07/12 02:57:43;;;;;;;2.35;1.45;;;24.40;51.70;;;;;;4990456;28;20053;-50
2023/07/12 03:00:11;;;;;;;8.13;1.52;;;24.40;51.80;;;;;;4991520;28;21986;-51
2023/07/12 03:02:40;;;;;;;7.15;2.00;;;24.40;52.00;;;;;;4983783;28;20053;-49
2023/07/12 03:05:08;;;;;;;5.28;1.70;;;24.30;51.90;;;;;;4993177;28;20062;-52
2023/07/12 03:07:35;;;;;;;3.38;1.20;;;24.30;51.90;;;;;;4994963;28;20050;-48
2023/07/12 03:10:04;;;;;;;12.27;1.70;;;24.20;52.00;;;;;;4995120;28;20057;-49
2023/07/12 03:12:31;;;;;;;6.15;2.10;;;24.20;52.10;;;;;;4987046;28;20061;-55
2023/07/12 03:14:59;;;;;;;5.22;1.73;;;24.20;52.10;;;;;;4987678;28;20359;-51
2023/07/12 03:17:26;;;;;;;6.22;1.75;;;24.10;52.20;;;;;;4991483;28;20060;-52
2023/07/12 03:19:54;;;;;;;5.93;2.25;;;24.10;53.00;;;;;;5002170;28;20057;-51
2023/07/12 03:22:21;;;;;;;5.05;1.92;;;23.90;53.70;;;;;;4996789;28;20573;-53
2023/07/12 03:24:49;;;;;;;6.40;2.10;;;23.80;54.10;;;;;;4997754;28;20069;-58
2023/07/12 03:27:16;;;;;;;7.03;2.10;;;23.60;54.30;;;;;;4998612;28;20046;-57
2023/07/12 03:29:44;;;;;;;5.20;2.03;;;23.50;54.50;;;;;;4996838;28;20053;-60
2023/07/12 03:32:11;;;;;;;6.47;1.55;;;23.30;54.80;;;;;;5001844;28;20057;-59
2023/07/12 03:34:38;;;;;;;4.28;1.80;;;23.00;55.00;;;;;;5001667;28;20050;-60
2023/07/12 03:37:06;;;;;;;2.03;1.48;;;22.90;55.60;;;;;;5001133;28;20065;-61
2023/07/12 03:39:34;;;;;;;5.70;2.30;;;22.70;56.10;;;;;;5004218;28;20058;-60
2023/07/12 03:42:01;;;;;;;4.45;1.88;;;22.60;56.40;;;;;;5000543;28;20057;-60
2023/07/12 03:44:28;;;;;;;4.43;2.10;;;22.50;56.70;;;;;;4999610;28;20057;-59
2023/07/12 03:46:55;;;;;;;3.28;1.83;;;22.40;57.10;;;;;;4998965;28;20046;-57
2023/07/12 03:49:23;;;;;;;4.72;1.98;;;22.40;57.30;;;;;;5001069;28;20056;-56
2023/07/12 03:51:50;;;;;;;5.70;2.05;;;22.30;57.40;;;;;;5001588;28;20054;-57
2023/07/12 03:54:18;;;;;;;5.20;2.35;;;22.30;57.60;;;;;;5001374;28;20065;-58
2023/07/12 03:56:46;;;;;;;5.22;2.10;;;22.20;58.00;;;;;;4998784;28;20049;-60
2023/07/12 03:59:13;;;;;;;4.78;2.40;;;22.10;58.30;;;;;;5000653;28;20053;-58
2023/07/12 04:01:40;;;;;;;4.60;2.30;;;22.10;58.70;;;;;;5002034;28;20069;-61
2023/07/12 04:04:07;;;;;;;5.35;2.10;;;22.00;59.00;;;;;;5001820;28;20497;-58
2023/07/12 04:06:35;;;;;;;4.40;2.33;;;22.00;59.30;;;;;;4999383;28;21648;-58
2023/07/12 04:09:03;;;;;;;5.53;2.17;;;21.90;59.40;;;;;;4991500;28;20073;-62
2023/07/12 04:11:33;;;;;;;5.65;2.08;;;21.80;59.20;;;;;;4998151;28;20054;-58
2023/07/12 04:14:01;;;;;;;8.18;1.88;;;21.70;58.30;;;;;;4994059;28;20057;-54
2023/07/12 04:16:29;;;;;;;5.22;1.80;;;21.60;58.00;;;;;;4996006;28;20053;-61
2023/07/12 04:18:57;;;;;;;3.20;1.50;;;21.50;58.00;;;;;;4995663;28;20065;-62
2023/07/12 04:21:24;;;;;;;4.20;1.58;;;21.40;57.60;;;;;;5000392;28;20054;-62
2023/07/12 04:23:53;;;;;;;5.28;1.70;;;21.30;57.80;;;;;;4998279;28;20083;-59
2023/07/12 04:26:21;;;;;;;3.63;1.30;;;21.20;58.20;;;;;;4999236;28;20053;-57
2023/07/12 04:28:51;;;;;;;36.05;16.17;;;21.10;57.90;;;;;;4992842;28;20064;-63
2023/07/12 04:31:20;;;;;;;7.57;3.53;;;21.00;58.30;;;;;;4984773;28;20057;-60
2023/07/12 04:33:47;;;;;;;2.88;1.67;;;20.90;58.30;;;;;;4988940;28;20080;-62
2023/07/12 04:36:17;;;;;;;5.80;1.30;;;20.80;58.30;;;;;;4990557;28;20049;-59
2023/07/12 04:38:44;;;;;;;4.32;1.30;;;20.80;58.40;;;;;;4996826;28;20061;-62
2023/07/12 04:41:12;;;;;;;2.63;1.40;;;20.70;58.30;;;;;;4990842;28;20064;-62
2023/07/12 04:43:39;;;;;;;2.63;1.20;;;20.60;58.20;;;;;;4993769;28;20057;-61
2023/07/12 04:46:08;;;;;;;1.77;1.20;;;20.60;58.50;;;;;;5002682;28;20516;-62
2023/07/12 04:48:35;;;;;;;2.30;1.17;;;20.60;58.60;;;;;;5000783;28;20824;-60
2023/07/12 04:51:03;;;;;;;5.43;1.42;;;20.60;58.70;;;;;;4999639;28;20054;-61
2023/07/12 04:53:32;;;;;;;4.30;1.48;;;20.60;58.80;;;;;;4987179;28;20497;-61
2023/07/12 04:55:59;;;;;;;6.18;1.13;;;20.60;58.90;;;;;;4994618;28;20401;-60
2023/07/12 04:58:27;;;;;;;4.00;1.50;;;20.60;59.00;;;;;;4997536;28;20054;-63
2023/07/12 05:00:55;;;;;;;3.72;1.40;;;20.60;58.90;;;;;;4996763;28;20504;-61
2023/07/12 05:03:23;;;;;;;2.05;0.93;;;20.60;58.80;;;;;;4988655;28;20065;-61
2023/07/12 05:05:51;;;;;;;3.40;1.48;;;20.70;58.80;;;;;;4991406;28;20061;-62
2023/07/12 05:08:18;;;;;;;4.90;1.65;;;20.70;58.70;;;;;;4996736;28;20073;-62
2023/07/12 05:10:45;;;;;;;2.65;1.40;;;20.70;58.80;;;;;;5000105;28;20053;-57
2023/07/12 05:13:13;;;;;;;4.40;1.10;;;20.80;58.90;;;;;;5001617;28;20052;-62
2023/07/12 05:15:40;;;;;;;2.22;1.05;;;20.80;58.90;;;;;;4999727;28;20074;-60
2023/07/12 05:18:08;;;;;;;1.98;1.17;;;20.80;58.90;;;;;;4986998;28;20413;-63
2023/07/12 05:20:37;;;;;;;3.72;1.65;;;20.90;59.10;;;;;;4995637;28;20068;-60
2023/07/12 05:23:04;;;;;;;2.92;1.40;;;20.90;58.90;;;;;;4996070;28;20153;-58
2023/07/12 05:25:32;;;;;;;3.13;1.20;;;21.00;58.70;;;;;;4998773;28;20050;-59
2023/07/12 05:28:00;;;;;;;2.67;1.70;;;20.90;58.60;;;;;;5000460;28;20413;-60
2023/07/12 05:30:27;;;;;;;2.80;1.40;;;21.00;58.80;;;;;;4999685;28;20072;-60
2023/07/12 05:32:54;;;;;;;4.32;1.60;;;21.10;58.60;;;;;;4996264;28;20057;-60
2023/07/12 05:35:21;;;;;;;3.60;1.30;;;21.10;58.80;;;;;;4990600;28;20061;-58
2023/07/12 05:37:50;;;;;;;2.47;1.10;;;21.20;58.90;;;;;;4995963;28;20398;-61
2023/07/12 05:40:18;;;;;;;3.92;1.45;;;21.30;59.40;;;;;;4995537;28;20085;-62
2023/07/12 05:42:45;;;;;;;3.60;1.23;;;21.40;58.40;;;;;;4998956;28;20058;-55
2023/07/12 05:45:14;;;;;;;2.38;1.33;;;21.40;56.90;;;;;;4998106;28;20061;-50
2023/07/12 05:47:45;;;;;;;3.20;1.35;;;21.50;57.20;;;;;;4999453;28;20049;-53
2023/07/12 05:50:15;;;;;;;4.07;1.92;;;21.50;56.90;;;;;;4988310;28;20060;-54
2023/07/12 05:52:42;;;;;;;2.55;1.20;;;21.50;57.00;;;;;;4997054;28;20046;-49
2023/07/12 05:55:13;;;;;;;1.35;0.93;;;21.60;56.90;;;;;;4992540;28;20068;-49
2023/07/12 05:57:40;;;;;;;3.92;1.75;;;21.60;57.70;;;;;;4994203;28;20519;-57
2023/07/12 06:00:10;;;;;;;3.72;1.33;;;21.70;57.10;;;;;;4995205;28;20057;-48
2023/07/12 06:02:38;;;;;;;1.42;1.10;;;21.80;56.50;;;;;;4990252;28;20100;-54
2023/07/12 06:05:05;;;;;;;1.85;1.23;;;21.80;56.60;;;;;;4989574;28;20100;-48
2023/07/12 06:07:33;;;;;;;1.73;1.15;;;21.90;56.50;;;;;;4990741;28;20050;-52
2023/07/12 06:10:00;;;;;;;3.05;0.80;;;21.90;55.70;;;;;;4991071;28;20058;-55
2023/07/12 06:12:29;;;;;;;1.95;0.80;;;21.90;55.40;;;;;;4988637;28;20050;-55
2023/07/12 06:14:56;;;;;;;1.73;0.68;;;22.00;55.70;;;;;;4985605;28;20045;-49
2023/07/12 06:17:23;;;;;;;1.80;0.90;;;21.90;55.80;;;;;;4983288;28;20058;-52
2023/07/12 06:19:50;;;;;;;2.85;0.90;;;22.00;55.50;;;;;;4984039;28;20057;-52
2023/07/12 06:22:18;;;;;;;2.47;1.10;;;22.00;55.40;;;;;;4988127;28;20069;-50
2023/07/12 06:24:45;;;;;;;5.97;1.10;;;22.00;55.40;;;;;;4991107;28;20069;-57
2023/07/12 06:27:13;;;;;;;1.35;0.80;;;22.10;54.90;;;;;;4990482;28;20073;-49
2023/07/12 06:29:42;;;;;;;2.38;1.02;;;22.10;54.80;;;;;;4994522;28;20121;-54
2023/07/12 06:32:10;;;;;;;1.73;1.00;;;22.10;55.10;;;;;;4987426;28;20077;-49
2023/07/12 06:34:37;;;;;;;1.67;1.10;;;22.20;55.10;;;;;;4990878;28;20058;-52
2023/07/12 06:37:05;;;;;;;2.20;0.90;;;22.20;55.20;;;;;;4987154;28;20460;-50
2023/07/12 06:39:33;;;;;;;1.80;1.15;;;22.20;55.20;;;;;;4983689;28;20382;-54
2023/07/12 06:42:01;;;;;;;1.27;0.90;;;22.20;55.10;;;;;;4990385;28;20067;-50
2023/07/12 06:44:28;;;;;;;1.52;0.98;;;22.30;54.90;;;;;;4988561;28;20054;-52
2023/07/12 06:46:56;;;;;;;2.75;1.00;;;22.20;54.50;;;;;;4984783;28;20077;-54
2023/07/12 06:49:24;;;;;;;1.48;0.73;;;22.30;54.70;;;;;;4989331;28;20069;-48
2023/07/12 06:51:51;;;;;;;1.10;0.60;;;22.30;54.80;;;;;;4988714;28;20064;-61
2023/07/12 06:54:18;;;;;;;1.92;0.85;;;22.30;54.80;;;;;;4986013;28;20065;-61
2023/07/12 06:56:46;;;;;;;1.50;0.80;;;22.30;54.50;;;;;;4994609;28;20057;-61
2023/07/12 06:59:13;;;;;;;1.45;0.82;;;22.40;54.20;;;;;;4989766;28;20091;-60
2023/07/12 07:01:40;;;;;;;2.70;0.77;;;22.30;53.60;;;;;;4986141;28;20053;-61
2023/07/12 07:04:09;;;;;;;2.78;0.90;;;22.40;53.60;;;;;;4993087;28;20370;-60
2023/07/12 07:06:36;;;;;;;2.15;1.25;;;22.30;53.50;;;;;;4989477;28;20058;-58
2023/07/12 07:09:04;;;;;;;2.72;1.00;;;22.30;53.40;;;;;;4990575;28;20042;-60
2023/07/12 07:11:31;;;;;;;2.75;1.20;;;22.30;52.70;;;;;;4989318;28;20046;-67
2023/07/12 07:13:58;;;;;;;1.98;0.93;;;22.30;52.70;;;;;;4985105;28;20790;-66
2023/07/12 07:16:25;;;;;;;1.10;0.80;;;22.20;52.80;;;;;;4991387;28;20085;-67
2023/07/12 07:18:53;;;;;;;1.75;0.80;;;22.20;53.10;;;;;;4983512;28;20057;-67
2023/07/12 07:21:21;;;;;;;1.27;0.80;;;22.20;53.40;;;;;;4989229;28;20110;-66
2023/07/12 07:23:49;;;;;;;2.53;1.00;;;22.20;53.30;;;;;;4986502;28;20050;-66
2023/07/12 07:26:16;;;;;;;1.13;0.80;;;22.20;53.20;;;;;;4988800;28;20054;-65
2023/07/12 07:28:44;;;;;;;1.25;0.80;;;22.20;53.30;;;;;;4990664;28;20046;-67
2023/07/12 07:31:11;;;;;;;2.65;0.90;;;22.30;53.30;;;;;;4992563;28;20153;-68
2023/07/12 07:33:40;;;;;;;1.15;0.80;;;22.30;53.60;;;;;;4988753;28;20046;-67
2023/07/12 07:36:09;;;;;;;0.88;0.60;;;22.30;53.60;;;;;;4993131;28;20058;-66
2023/07/12 07:38:38;;;;;;;3.03;0.90;;;22.40;53.90;;;;;;4992542;28;20056;-65
2023/07/12 07:41:09;;;;;;;1.40;0.85;;;22.50;53.60;;;;;;4991345;28;20137;-66
2023/07/12 07:43:37;;;;;;;2.00;0.82;;;22.50;53.40;;;;;;4996642;28;20058;-66
2023/07/12 07:46:04;;;;;;;2.28;1.10;;;22.60;53.10;;;;;;4992890;28;20058;-68
2023/07/12 07:48:31;;;;;;;0.90;0.80;;;22.70;52.80;;;;;;4991330;28;20049;-69
2023/07/12 07:50:59;;;;;;;3.72;0.80;;;22.70;53.10;;;;;;4988607;28;20498;-67
2023/07/12 07:53:26;;;;;;;1.25;0.77;;;22.80;53.10;;;;;;4990100;28;20065;-66
2023/07/12 07:55:55;;;;;;;1.40;0.80;;;22.80;53.00;;;;;;4990601;28;20062;-62
2023/07/12 07:58:22;;;;;;;1.17;0.70;;;22.90;53.10;;;;;;4992069;28;21275;-68
2023/07/12 08:00:51;;;;;;;1.33;0.75;;;23.00;53.10;;;;;;4989537;28;20050;-60
2023/07/12 08:03:18;;;;;;;1.40;0.98;;;23.00;52.50;;;;;;4983944;28;20409;-61
2023/07/12 08:05:46;;;;;;;2.35;0.98;;;23.10;52.50;;;;;;4983899;28;20537;-61
2023/07/12 08:08:14;;;;;;;2.10;1.05;;;23.20;52.00;;;;;;4989165;28;20050;-59
2023/07/12 08:10:41;;;;;;;2.72;0.90;;;23.20;51.70;;;;;;4986619;28;20133;-58
2023/07/12 08:13:11;;;;;;;2.42;0.68;;;23.20;51.70;;;;;;4986530;28;21135;-60
2023/07/12 08:15:41;;;;;;;1.02;0.85;;;23.20;51.60;;;;;;4988290;28;20054;-59
2023/07/12 08:18:12;;;;;;;1.90;0.98;;;23.20;51.70;;;;;;4990224;28;20058;-58
2023/07/12 08:20:40;;;;;;;1.38;1.00;;;23.20;52.00;;;;;;4989551;28;20060;-59
2023/07/12 08:23:08;;;;;;;2.30;1.10;;;23.20;52.00;;;;;;4990670;28;20054;-60
2023/07/12 08:25:35;;;;;;;1.23;0.90;;;23.20;51.70;;;;;;4992886;28;20643;-59
2023/07/12 08:28:02;;;;;;;3.28;0.90;;;23.30;51.90;;;;;;4993790;28;20362;-59
2023/07/12 08:30:31;;;;;;;1.88;0.98;;;23.30;52.00;;;;;;4989050;28;20046;-59
2023/07/12 08:32:59;;;;;;;2.65;0.90;;;23.30;51.60;;;;;;4991546;28;20076;-62
2023/07/12 08:35:26;;;;;;;1.23;0.90;;;23.30;51.40;;;;;;4988901;28;20060;-59
2023/07/12 08:37:55;;;;;;;2.35;1.10;;;23.40;51.30;;;;;;4987894;28;20049;-61
2023/07/12 08:40:22;;;;;;;1.38;0.82;;;23.30;50.90;;;;;;4993381;28;20525;-58
2023/07/12 08:42:50;;;;;;;3.47;1.15;;;23.30;51.10;;;;;;4990245;28;20053;-59
2023/07/12 08:45:24;;;;;;;1.55;0.80;;;23.30;51.20;;;;;;4992000;28;20133;-62
2023/07/12 08:47:57;;;;;;;2.28;1.02;;;23.30;51.20;;;;;;4995662;28;20381;-58
2023/07/12 08:50:25;;;;;;;1.30;0.80;;;23.30;51.10;;;;;;4992156;28;20049;-61
2023/07/12 08:52:53;;;;;;;0.85;0.63;;;23.30;51.20;;;;;;4996385;28;20058;-59
2023/07/12 08:55:22;;;;;;;1.30;0.80;;;23.30;51.30;;;;;;4994096;28;20045;-55
2023/07/12 08:57:54;;;;;;;3.78;0.93;;;23.30;51.20;;;;;;4989065;28;20050;-63
2023/07/12 09:00:24;;;;;;;1.90;1.00;;;23.30;50.70;;;;;;4992237;28;20057;-60
2023/07/12 09:02:52;;;;;;;2.85;1.00;;;23.40;51.00;;;;;;4990477;28;20175;-61
2023/07/12 09:05:23;;;;;;;2.70;0.93;;;23.40;51.60;;;;;;4991301;28;20054;-60
2023/07/12 09:07:55;;;;;;;2.00;0.80;;;23.40;51.10;;;;;;4993885;28;20521;-58
2023/07/12 09:10:33;;;;;;;2.30;0.85;;;23.50;50.90;;;;;;4994237;28;20064;-57
2023/07/12 09:13:01;;;;;;;5.60;1.08;;;23.50;50.30;;;;;;4993842;28;20065;-58
2023/07/12 09:15:35;;;;;;;2.25;0.90;;;23.60;50.50;;;;;;4995684;28;20046;-61
2023/07/12 09:18:07;;;;;;;1.85;0.98;;;23.60;50.00;;;;;;4988644;28;20418;-61
2023/07/12 09:20:39;;;;;;;2.15;1.02;;;23.60;50.70;;;;;;4990942;28;20065;-60
2023/07/12 09:23:10;;;;;;;1.88;1.20;;;23.60;50.80;;;;;;4993335;28;20121;-61
2023/07/12 09:25:39;;;;;;;1.33;0.90;;;23.70;50.50;;;;;;4988466;28;20054;-59
2023/07/12 09:28:11;;;;;;;2.80;1.08;;;23.70;50.30;;;;;;4988916;28;20053;-68
2023/07/12 09:30:38;;;;;;;3.45;0.88;;;23.70;50.10;;;;;;4986760;28;20069;-65
2023/07/12 09:33:14;;;;;;;1.90;1.00;;;23.80;50.20;;;;;;4983075;28;20065;-63
2023/07/12 09:35:45;;;;;;;4.22;1.42;;;23.80;49.90;;;;;;4989293;28;20053;-63
2023/07/12 09:38:14;;;;;;;2.38;0.90;;;23.80;49.50;;;;;;4992474;28;21203;-64
2023/07/12 09:40:43;;;;;;;1.60;0.70;;;23.80;49.60;;;;;;4988521;28;20065;-64
2023/07/12 09:43:17;;;;;;;2.10;1.00;;;23.90;49.70;;;;;;4989432;28;20061;-58
2023/07/12 09:45:54;;;;;;;2.63;1.13;;;24.00;49.90;;;;;;4992038;28;20050;-57
2023/07/12 09:48:29;;;;;;;2.65;0.80;;;24.10;49.70;;;;;;4992107;28;20056;-67
2023/07/12 09:51:07;;;;;;;4.47;0.55;;;24.10;49.50;;;;;;4987242;28;20054;-68
2023/07/12 09:53:41;;;;;;;2.03;0.80;;;24.30;49.90;;;;;;4992030;28;20058;-58
2023/07/12 09:56:22;;;;;;;2.95;0.80;;;24.40;49.10;;;;;;4987339;28;20054;-64
2023/07/12 09:58:58;;;;;;;1.85;0.80;;;24.40;48.20;;;;;;4990628;28;20053;-60
2023/07/12 10:01:39;;;;;;;4.60;1.25;;;24.50;47.50;;;;;;4983142;28;20053;-63
2023/07/12 10:04:30;;;;;;;3.10;0.80;;;24.50;47.40;;;;;;4988605;28;20057;-65
2023/07/12 10:06:58;;;;;;;1.23;0.77;;;24.50;46.50;;;;;;4984799;28;20061;-65
2023/07/12 10:09:30;;;;;;;1.80;0.70;;;24.50;47.10;;;;;;4988214;28;20487;-60
2023/07/12 10:12:04;;;;;;;0.88;0.57;;;24.60;47.40;;;;;;4993147;28;20897;-61
2023/07/12 10:14:35;;;;;;;1.85;0.70;;;24.60;46.70;;;;;;4986663;28;20055;-65
2023/07/12 10:17:03;;;;;;;2.30;0.65;;;24.70;46.70;;;;;;4997805;28;20080;-59
2023/07/12 10:19:35;;;;;;;3.33;0.82;;;24.70;45.70;;;;;;4995384;28;20054;-58
2023/07/12 10:22:05;;;;;;;3.20;0.90;;;24.70;45.80;;;;;;4987339;28;20062;-58
2023/07/12 10:24:37;;;;;;;3.20;1.08;;;24.70;45.70;;;;;;4986763;28;20066;-65
2023/07/12 10:27:16;;;;;;;3.15;1.10;;;24.70;45.50;;;;;;4986674;28;20064;-61
2023/07/12 10:29:48;;;;;;;2.65;0.88;;;24.70;45.60;;;;;;4990197;28;20060;-60
2023/07/12 10:32:21;;;;;;;2.45;0.75;;;24.80;45.50;;;;;;4993980;28;20054;-63
2023/07/12 10:35:04;;;;;;;3.25;1.15;;;24.80;44.90;;;;;;4993052;28;20551;-60
2023/07/12 10:37:37;;;;;;;2.38;0.85;;;24.80;45.20;;;;;;4990768;28;20073;-57
2023/07/12 10:40:06;;;;;;;1.77;0.63;;;24.80;44.30;;;;;;4986113;28;21107;-66
2023/07/12 10:42:40;;;;;;;6.25;1.02;;;24.80;45.00;;;;;;4990831;28;20046;-58
2023/07/12 10:45:16;;;;;;;2.25;0.63;;;24.80;44.90;;;;;;4988003;28;20413;-66
2023/07/12 10:47:44;;;;;;;3.40;0.80;;;24.80;44.00;;;;;;4983336;28;20058;-63
2023/07/12 10:50:24;;;;;;;2.60;0.88;;;24.80;44.40;;;;;;4988030;28;20563;-59
2023/07/12 10:52:59;;;;;;;4.32;1.20;;;24.80;43.40;;;;;;4986382;28;20501;-60
2023/07/12 10:55:47;;;;;;;1.77;0.70;;;24.80;43.20;;;;;;4986114;28;20057;-62
2023/07/12 10:58:27;;;;;;;2.90;0.73;;;24.90;43.80;;;;;;4993989;28;20084;-62
2023/07/12 11:00:56;;;;;;;1.67;0.70;;;24.90;44.10;;;;;;4989899;28;20053;-60
2023/07/12 11:03:34;;;;;;;4.97;0.98;;;24.90;44.10;;;;;;4988852;28;20049;-63
2023/07/12 11:06:22;;;;;;;3.33;0.80;;;24.90;43.00;;;;;;4983481;28;20513;-63
2023/07/12 11:09:01;;;;;;;4.15;1.02;;;24.90;43.60;;;;;;4990631;28;20046;-57
2023/07/12 11:11:42;;;;;;;3.95;0.75;;;24.90;42.80;;;;;;4988921;28;20049;-63
2023/07/12 11:14:21;;;;;;;1.58;0.88;;;24.90;43.40;;;;;;4990575;28;20169;-63
2023/07/12 11:17:10;;;;;;;1.83;0.82;;;25.00;43.90;;;;;;4993148;28;20080;-65
2023/07/12 11:20:01;;;;;;;1.42;0.40;;;25.10;44.30;;;;;;4988702;28;20413;-66
2023/07/12 11:22:58;;;;;;;3.38;1.10;;;25.10;43.70;;;;;;4990932;28;20058;-66
2023/07/12 11:25:32;;;;;;;2.42;0.90;;;25.20;44.00;;;;;;4993687;28;20069;-64
2023/07/12 11:28:02;;;;;;;1.92;0.60;;;25.30;43.80;;;;;;4994228;28;20065;-67
2023/07/12 11:30:43;;;;;;;4.68;0.90;;;25.40;43.50;;;;;;4990473;28;20057;-59
2023/07/12 11:33:27;;;;;;;2.67;0.75;;;25.40;42.80;;;;;;4986566;28;20050;-59
2023/07/12 11:35:59;;;;;;;1.85;0.90;;;25.50;42.80;;;;;;4992530;28;20046;-70
2023/07/12 11:38:30;;;;;;;6.30;1.08;;;25.50;41.40;;;;;;4992543;28;20505;-66
2023/07/12 11:40:59;;;;;;;3.05;0.90;;;25.60;41.30;;;;;;4994500;28;20509;-59
2023/07/12 11:43:34;;;;;;;2.58;0.82;;;25.60;41.50;;;;;;4996425;28;20057;-56
2023/07/12 11:46:03;;;;;;;4.93;0.90;;;25.60;41.10;;;;;;4996779;28;20062;-61
2023/07/12 11:48:33;;;;;;;4.03;0.82;;;25.60;40.80;;;;;;4991101;28;20058;-59
2023/07/12 11:51:08;;;;;;;4.22;0.63;;;25.60;39.60;;;;;;4993095;28;20173;-61
2023/07/12 11:53:38;;;;;;;3.17;0.73;;;25.60;40.50;;;;;;4988644;28;20386;-67
2023/07/12 11:56:06;;;;;;;2.50;0.77;;;25.60;41.30;;;;;;4997702;28;20058;-62
2023/07/12 11:58:33;;;;;;;2.40;0.68;;;25.60;41.50;;;;;;4994087;28;20054;-61
2023/07/12 12:01:01;;;;;;;2.97;0.80;;;25.70;41.20;;;;;;4995263;28;20421;-61
2023/07/12 12:03:28;;;;;;;3.53;1.05;;;25.70;41.00;;;;;;4990759;28;20057;-65
2023/07/12 12:05:55;;;;;;;4.43;0.63;;;25.80;41.30;;;;;;4994225;28;20065;-57
2023/07/12 12:08:28;;;;;;;2.30;0.60;;;25.80;41.30;;;;;;4990017;28;20058;-64
2023/07/12 12:10:56;;;;;;;4.80;0.70;;;25.80;41.20;;;;;;4990761;28;20431;-60
2023/07/12 12:13:30;;;;;;;2.67;0.80;;;25.90;39.90;;;;;;4990235;28;20053;-67
2023/07/12 12:15:59;;;;;;;;;;;25.90;40.20;;;;;;4991521;28;20065;-62
2023/07/12 12:18:26;;;;;;;1.52;0.68;;;26.00;41.40;;;;;;4988905;28;19922;-61
2023/07/12 12:20:56;;;;;;;3.63;1.10;;;26.00;40.50;;;;;;4990104;28;20589;-66
2023/07/12 12:23:31;;;;;;;6.13;0.80;;;26.10;39.60;;;;;;4990369;28;20482;-59
2023/07/12 12:26:05;;;;;;;1.73;0.90;;;26.10;38.90;;;;;;4995021;28;20050;-58
2023/07/12 12:28:34;;;;;;;1.55;0.60;;;26.10;38.10;;;;;;4989994;28;20065;-64
2023/07/12 12:31:07;;;;;;;5.88;0.75;;;26.10;39.30;;;;;;4991191;28;20058;-63
2023/07/12 12:33:34;;;;;;;2.95;0.80;;;26.20;39.50;;;;;;4991305;28;20062;-65
2023/07/12 12:36:05;;;;;;;1.92;0.60;;;26.20;39.60;;;;;;4991686;28;20065;-57
2023/07/12 12:38:35;;;;;;;2.58;0.60;;;26.20;38.80;;;;;;4995946;28;20049;-62
2023/07/12 12:41:13;;;;;;;1.70;0.75;;;26.30;38.90;;;;;;4992323;28;20401;-62
2023/07/12 12:43:55;;;;;;;2.25;0.70;;;26.30;38.40;;;;;;4994209;28;20057;-66
2023/07/12 12:46:22;;;;;;;2.40;0.98;;;26.40;38.80;;;;;;4988053;28;20312;-67
2023/07/12 12:48:51;;;;;;;3.25;0.80;;;26.40;39.20;;;;;;4986484;28;20058;-67
2023/07/12 12:51:19;;;;;;;5.13;0.73;;;26.50;39.10;;;;;;4991520;28;20050;-66
2023/07/12 12:53:46;;;;;;;2.28;0.70;;;26.50;38.70;;;;;;4988967;28;20049;-65
2023/07/12 12:56:15;;;;;;;1.50;0.70;;;26.60;37.90;;;;;;4990383;28;20061;-65
2023/07/12 12:58:43;;;;;;;1.52;0.60;;;26.60;38.10;;;;;;4993433;28;20058;-58
2023/07/12 13:01:14;;;;;;;7.53;0.90;;;26.70;38.30;;;;;;4995242;28;20053;-66